B52KF ZGSD-ZBAA
Flight info
| Callsign | B52KF |
|---|---|
| Flight time | 2h 54m |
| Altitude | 39100 |
| Route | GUBLO W21 TEPID W22 YIN A461 BUBDA/K0863S1160 W56 REBIS/K0859S1190 W56 LEBUN/K0846S1220 W56 NUDKU/K0846S1190 W56 DUGEB |
| Aircraft | CL60/M-SBDE1E2E3FGHIJ4J5J7M3RWXYZ/LB1V1D1 |
Departure
| Time | 2026-05-08 11:56 |
|---|---|
| Airport | Zhuhai Jinwan Airport (ZGSD) |
Arrival
| Time | 2026-05-08 14:50 |
|---|---|
| Airport | Beijing Capital International Airport (ZBAA) |
| Time | Latitude | Longitude | Altitude | Speed | Heading |
|---|---|---|---|---|---|
| 2026-05-08 11:14 | 22.00903 | 113.37502 | 27 ft | 0 kts | 175° |
| 2026-05-08 11:48 | 22.00902 | 113.37502 | 27 ft | 1 kts | 175° |
| 2026-05-08 11:49 | 22.00876 | 113.37505 | 27 ft | 5 kts | 175° |
| 2026-05-08 11:49 | 22.00837 | 113.37492 | 27 ft | 6 kts | 191° |
| 2026-05-08 11:49 | 22.00804 | 113.37527 | 27 ft | 8 kts | 160° |
| 2026-05-08 11:49 | 22.00748 | 113.37493 | 27 ft | 11 kts | 225° |
| 2026-05-08 11:50 | 22.00687 | 113.37427 | 27 ft | 13 kts | 224° |
| 2026-05-08 11:50 | 22.00612 | 113.37348 | 27 ft | 16 kts | 225° |
| 2026-05-08 11:50 | 22.00524 | 113.37254 | 27 ft | 18 kts | 225° |
| 2026-05-08 11:50 | 22.00425 | 113.37151 | 27 ft | 21 kts | 224° |
| 2026-05-08 11:51 | 22.00316 | 113.37034 | 27 ft | 22 kts | 225° |
| 2026-05-08 11:51 | 22.00197 | 113.36907 | 27 ft | 24 kts | 225° |
| 2026-05-08 11:51 | 22.00070 | 113.36772 | 27 ft | 26 kts | 225° |
| 2026-05-08 11:51 | 21.99935 | 113.36629 | 27 ft | 27 kts | 224° |
| 2026-05-08 11:52 | 21.99792 | 113.36478 | 27 ft | 29 kts | 225° |
| 2026-05-08 11:52 | 21.99648 | 113.36324 | 27 ft | 21 kts | 225° |
| 2026-05-08 11:52 | 21.99609 | 113.36285 | 27 ft | 7 kts | 203° |
| 2026-05-08 11:52 | 21.99562 | 113.36312 | 27 ft | 6 kts | 136° |
| 2026-05-08 11:53 | 21.99558 | 113.36316 | 27 ft | 0 kts | 136° |
| 2026-05-08 11:54 | 21.99558 | 113.36317 | 27 ft | 1 kts | 136° |
| 2026-05-08 11:54 | 21.99531 | 113.36345 | 27 ft | 7 kts | 135° |
| 2026-05-08 11:54 | 21.99490 | 113.36395 | 27 ft | 8 kts | 90° |
| 2026-05-08 11:55 | 21.99526 | 113.36446 | 27 ft | 3 kts | 45° |
| 2026-05-08 11:55 | 21.99526 | 113.36447 | 27 ft | 0 kts | 45° |
| 2026-05-08 11:55 | 21.99527 | 113.36449 | 27 ft | 3 kts | 45° |
| 2026-05-08 11:55 | 21.99746 | 113.36681 | 27 ft | 92 kts | 44° |
| 2026-05-08 11:56 | 22.00418 | 113.37391 | 144 ft | 163 kts | 44° |
| 2026-05-08 11:56 | 22.01290 | 113.38315 | 810 ft | 191 kts | 45° |
| 2026-05-08 11:56 | 22.02296 | 113.39404 | 1453 ft | 221 kts | 45° |
| 2026-05-08 11:56 | 22.03483 | 113.40682 | 2188 ft | 253 kts | 45° |
| 2026-05-08 11:57 | 22.04738 | 113.42033 | 3273 ft | 260 kts | 45° |
| 2026-05-08 11:57 | 22.06039 | 113.43425 | 4244 ft | 269 kts | 45° |
| 2026-05-08 11:57 | 22.07415 | 113.44815 | 5265 ft | 275 kts | 41° |
| 2026-05-08 11:57 | 22.08845 | 113.46193 | 6236 ft | 280 kts | 42° |
| 2026-05-08 11:58 | 22.10320 | 113.47603 | 7212 ft | 284 kts | 41° |
| 2026-05-08 11:58 | 22.11807 | 113.49029 | 8147 ft | 289 kts | 42° |
| 2026-05-08 11:58 | 22.13340 | 113.50498 | 9091 ft | 293 kts | 42° |
| 2026-05-08 11:59 | 22.16461 | 113.53490 | 10622 ft | 314 kts | 41° |
| 2026-05-08 11:59 | 22.18158 | 113.55121 | 11106 ft | 333 kts | 41° |
| 2026-05-08 11:59 | 22.19912 | 113.56805 | 11818 ft | 341 kts | 41° |
| 2026-05-08 11:59 | 22.21708 | 113.58530 | 12559 ft | 348 kts | 40° |
| 2026-05-08 12:00 | 22.23536 | 113.60287 | 13296 ft | 353 kts | 40° |
| 2026-05-08 12:00 | 22.25446 | 113.62008 | 14019 ft | 358 kts | 37° |
| 2026-05-08 12:00 | 22.27422 | 113.63704 | 14726 ft | 364 kts | 36° |
| 2026-05-08 12:00 | 22.29415 | 113.65414 | 15286 ft | 374 kts | 36° |
| 2026-05-08 12:01 | 22.31444 | 113.67164 | 16111 ft | 372 kts | 35° |
| 2026-05-08 12:01 | 22.33481 | 113.68913 | 16774 ft | 373 kts | 38° |
| 2026-05-08 12:01 | 22.35535 | 113.70673 | 17348 ft | 383 kts | 36° |
| 2026-05-08 12:01 | 22.37651 | 113.72492 | 18191 ft | 388 kts | 38° |
| 2026-05-08 12:02 | 22.39785 | 113.74314 | 19127 ft | 391 kts | 37° |
| 2026-05-08 12:02 | 22.41893 | 113.76127 | 20226 ft | 388 kts | 40° |
| 2026-05-08 12:02 | 22.44005 | 113.77959 | 21000 ft | 388 kts | 40° |
| 2026-05-08 12:02 | 22.46065 | 113.79877 | 21066 ft | 399 kts | 43° |
| 2026-05-08 12:03 | 22.48153 | 113.81858 | 21418 ft | 402 kts | 40° |
| 2026-05-08 12:03 | 22.50278 | 113.83871 | 22047 ft | 400 kts | 39° |
| 2026-05-08 12:03 | 22.52346 | 113.85829 | 22801 ft | 399 kts | 39° |
| 2026-05-08 12:03 | 22.54449 | 113.87821 | 23395 ft | 403 kts | 39° |
| 2026-05-08 12:04 | 22.56572 | 113.89831 | 23904 ft | 408 kts | 38° |
| 2026-05-08 12:04 | 22.58739 | 113.91882 | 24397 ft | 413 kts | 38° |
| 2026-05-08 12:04 | 22.60899 | 113.93929 | 24889 ft | 417 kts | 38° |
| 2026-05-08 12:04 | 22.63122 | 113.95989 | 25356 ft | 420 kts | 34° |
| 2026-05-08 12:05 | 22.65679 | 113.97581 | 25848 ft | 416 kts | 18° |
| 2026-05-08 12:05 | 22.68491 | 113.98355 | 26304 ft | 412 kts | 2° |
| 2026-05-08 12:05 | 22.71348 | 113.98283 | 26714 ft | 410 kts | 347° |
| 2026-05-08 12:05 | 22.74098 | 113.97356 | 27140 ft | 407 kts | 332° |
| 2026-05-08 12:06 | 22.76461 | 113.95666 | 27518 ft | 406 kts | 316° |
| 2026-05-08 12:06 | 22.78363 | 113.93333 | 27918 ft | 407 kts | 307° |
| 2026-05-08 12:06 | 22.80109 | 113.90909 | 28323 ft | 410 kts | 307° |
| 2026-05-08 12:06 | 22.81896 | 113.88442 | 28751 ft | 413 kts | 306° |
| 2026-05-08 12:07 | 22.83675 | 113.85982 | 29199 ft | 414 kts | 306° |
| 2026-05-08 12:07 | 22.85439 | 113.83543 | 29639 ft | 416 kts | 306° |
| 2026-05-08 12:07 | 22.87254 | 113.81029 | 30043 ft | 418 kts | 306° |
| 2026-05-08 12:07 | 22.89047 | 113.78545 | 30454 ft | 420 kts | 306° |
| 2026-05-08 12:08 | 22.90855 | 113.76039 | 30830 ft | 421 kts | 306° |
| 2026-05-08 12:08 | 22.92690 | 113.73492 | 31192 ft | 423 kts | 306° |
| 2026-05-08 12:08 | 22.94173 | 113.70773 | 31576 ft | 420 kts | 289° |
| 2026-05-08 12:08 | 22.94768 | 113.67709 | 31924 ft | 420 kts | 276° |
| 2026-05-08 12:09 | 22.94788 | 113.64513 | 32163 ft | 424 kts | 266° |
| 2026-05-08 12:09 | 22.94274 | 113.61330 | 32465 ft | 427 kts | 257° |
| 2026-05-08 12:09 | 22.93265 | 113.58324 | 32763 ft | 431 kts | 248° |
| 2026-05-08 12:09 | 22.91748 | 113.55472 | 33096 ft | 435 kts | 238° |
| 2026-05-08 12:10 | 22.89801 | 113.52945 | 33446 ft | 439 kts | 229° |
| 2026-05-08 12:10 | 22.87450 | 113.50781 | 33797 ft | 444 kts | 220° |
| 2026-05-08 12:10 | 22.84792 | 113.49069 | 34152 ft | 449 kts | 211° |
| 2026-05-08 12:10 | 22.81817 | 113.47825 | 34553 ft | 453 kts | 201° |
| 2026-05-08 12:11 | 22.78719 | 113.47128 | 34867 ft | 459 kts | 192° |
| 2026-05-08 12:11 | 22.75476 | 113.46976 | 35144 ft | 465 kts | 182° |
| 2026-05-08 12:11 | 22.72193 | 113.47288 | 35372 ft | 468 kts | 179° |
| 2026-05-08 12:11 | 22.68924 | 113.47354 | 35631 ft | 463 kts | 188° |
| 2026-05-08 12:12 | 22.65770 | 113.46854 | 35849 ft | 457 kts | 200° |
| 2026-05-08 12:12 | 22.63103 | 113.45183 | 35999 ft | 432 kts | 236° |
| 2026-05-08 12:12 | 22.62085 | 113.42292 | 36053 ft | 415 kts | 273° |
| 2026-05-08 12:12 | 22.62974 | 113.39394 | 36091 ft | 413 kts | 309° |
| 2026-05-08 12:13 | 22.65052 | 113.37209 | 36401 ft | 412 kts | 315° |
| 2026-05-08 12:13 | 22.67148 | 113.35090 | 36624 ft | 413 kts | 316° |
| 2026-05-08 12:13 | 22.69428 | 113.33140 | 36780 ft | 417 kts | 322° |
| 2026-05-08 12:13 | 22.71948 | 113.31490 | 36971 ft | 421 kts | 329° |
| 2026-05-08 12:14 | 22.74640 | 113.30196 | 37196 ft | 425 kts | 336° |
| 2026-05-08 12:14 | 22.77486 | 113.29266 | 37394 ft | 429 kts | 342° |
| 2026-05-08 12:14 | 22.80462 | 113.28728 | 37608 ft | 433 kts | 350° |
| 2026-05-08 12:14 | 22.83483 | 113.28604 | 37825 ft | 437 kts | 356° |
| 2026-05-08 12:15 | 22.86562 | 113.28891 | 38060 ft | 441 kts | 2° |
| 2026-05-08 12:15 | 22.89581 | 113.29328 | 38187 ft | 442 kts | 2° |
| 2026-05-08 12:15 | 22.92674 | 113.29775 | 38385 ft | 442 kts | 1° |
| 2026-05-08 12:15 | 22.95744 | 113.30217 | 38546 ft | 442 kts | 1° |
| 2026-05-08 12:16 | 22.98816 | 113.30660 | 38752 ft | 442 kts | 1° |
| 2026-05-08 12:16 | 23.01857 | 113.31097 | 39016 ft | 440 kts | 1° |
| 2026-05-08 12:16 | 23.08031 | 113.31982 | 39063 ft | 446 kts | 1° |
| 2026-05-08 12:17 | 23.14257 | 113.32873 | 39069 ft | 451 kts | 2° |
| 2026-05-08 12:17 | 23.20524 | 113.33774 | 39069 ft | 454 kts | 2° |
| 2026-05-08 12:18 | 23.26859 | 113.34686 | 39067 ft | 455 kts | 2° |
| 2026-05-08 12:18 | 23.33145 | 113.35593 | 39075 ft | 455 kts | 2° |
| 2026-05-08 12:19 | 23.39449 | 113.36503 | 39067 ft | 454 kts | 2° |
| 2026-05-08 12:19 | 23.45773 | 113.37415 | 39075 ft | 454 kts | 2° |
| 2026-05-08 12:20 | 23.52043 | 113.38319 | 39075 ft | 454 kts | 1° |
| 2026-05-08 12:20 | 23.58346 | 113.38796 | 39089 ft | 449 kts | 356° |
| 2026-05-08 12:21 | 23.64655 | 113.39071 | 39090 ft | 450 kts | 356° |
| 2026-05-08 12:21 | 23.70995 | 113.39353 | 39093 ft | 451 kts | 356° |
| 2026-05-08 12:22 | 23.77312 | 113.39636 | 39095 ft | 451 kts | 356° |
| 2026-05-08 12:22 | 23.83617 | 113.39922 | 39112 ft | 450 kts | 356° |
| 2026-05-08 12:23 | 23.89330 | 113.40180 | 39128 ft | 449 kts | 356° |
| 2026-05-08 12:23 | 23.95685 | 113.40469 | 39130 ft | 449 kts | 356° |
| 2026-05-08 12:24 | 24.01996 | 113.40756 | 39137 ft | 450 kts | 356° |
| 2026-05-08 12:24 | 24.08365 | 113.41048 | 39127 ft | 451 kts | 356° |
| 2026-05-08 12:25 | 24.14726 | 113.41340 | 39132 ft | 450 kts | 356° |
| 2026-05-08 12:25 | 24.21060 | 113.41612 | 39131 ft | 450 kts | 355° |
| 2026-05-08 12:26 | 24.27306 | 113.41816 | 39129 ft | 449 kts | 355° |
| 2026-05-08 12:26 | 24.33589 | 113.42024 | 39156 ft | 448 kts | 355° |
| 2026-05-08 12:27 | 24.39894 | 113.42203 | 39174 ft | 449 kts | 355° |
| 2026-05-08 12:27 | 24.46212 | 113.42390 | 39173 ft | 454 kts | 355° |
| 2026-05-08 12:28 | 24.52673 | 113.42598 | 39192 ft | 459 kts | 355° |
| 2026-05-08 12:28 | 24.59083 | 113.42806 | 39187 ft | 463 kts | 355° |
| 2026-05-08 12:29 | 24.65596 | 113.43018 | 39181 ft | 466 kts | 355° |
| 2026-05-08 12:29 | 24.72094 | 113.43205 | 39186 ft | 466 kts | 355° |
| 2026-05-08 12:30 | 24.78626 | 113.43383 | 39173 ft | 466 kts | 355° |
| 2026-05-08 12:30 | 24.85142 | 113.43562 | 39184 ft | 465 kts | 355° |
| 2026-05-08 12:31 | 24.91606 | 113.43738 | 39191 ft | 465 kts | 355° |
| 2026-05-08 12:31 | 24.98095 | 113.43916 | 39201 ft | 464 kts | 355° |
| 2026-05-08 12:32 | 25.04582 | 113.44093 | 39213 ft | 464 kts | 355° |
| 2026-05-08 12:32 | 25.11046 | 113.44270 | 39213 ft | 464 kts | 355° |
| 2026-05-08 12:33 | 25.17437 | 113.44445 | 39216 ft | 465 kts | 354° |
| 2026-05-08 12:33 | 25.23788 | 113.44619 | 39212 ft | 465 kts | 355° |
| 2026-05-08 12:34 | 25.30257 | 113.44796 | 39221 ft | 465 kts | 354° |
| 2026-05-08 12:34 | 25.36705 | 113.44973 | 39223 ft | 465 kts | 354° |
| 2026-05-08 12:35 | 25.43017 | 113.45146 | 39226 ft | 465 kts | 354° |
| 2026-05-08 12:35 | 25.49563 | 113.45330 | 39250 ft | 465 kts | 354° |
| 2026-05-08 12:36 | 25.56050 | 113.45515 | 39229 ft | 465 kts | 354° |
| 2026-05-08 12:36 | 25.62599 | 113.45702 | 39241 ft | 465 kts | 354° |
| 2026-05-08 12:37 | 25.69081 | 113.45887 | 39244 ft | 465 kts | 354° |
| 2026-05-08 12:37 | 25.75568 | 113.46072 | 39249 ft | 465 kts | 354° |
| 2026-05-08 12:38 | 25.82057 | 113.46259 | 39245 ft | 465 kts | 354° |
| 2026-05-08 12:38 | 25.88586 | 113.46350 | 39239 ft | 461 kts | 351° |
| 2026-05-08 12:39 | 25.95012 | 113.46099 | 39237 ft | 461 kts | 351° |
| 2026-05-08 12:39 | 26.01456 | 113.45849 | 39240 ft | 461 kts | 350° |
| 2026-05-08 12:40 | 26.07906 | 113.45599 | 39243 ft | 461 kts | 350° |
| 2026-05-08 12:40 | 26.14370 | 113.45349 | 39253 ft | 461 kts | 350° |
| 2026-05-08 12:41 | 26.20770 | 113.45103 | 39246 ft | 460 kts | 350° |
| 2026-05-08 12:41 | 26.27216 | 113.44854 | 39248 ft | 460 kts | 350° |
| 2026-05-08 12:42 | 26.33640 | 113.44606 | 39260 ft | 460 kts | 350° |
| 2026-05-08 12:42 | 26.40049 | 113.44358 | 39248 ft | 461 kts | 350° |
| 2026-05-08 12:43 | 26.46435 | 113.44112 | 39251 ft | 460 kts | 350° |
| 2026-05-08 12:43 | 26.52780 | 113.43868 | 39255 ft | 461 kts | 350° |
| 2026-05-08 12:44 | 26.59094 | 113.43626 | 39256 ft | 460 kts | 350° |
| 2026-05-08 12:44 | 26.65465 | 113.43381 | 39254 ft | 460 kts | 350° |
| 2026-05-08 12:45 | 26.71952 | 113.43132 | 39259 ft | 459 kts | 350° |
| 2026-05-08 12:45 | 26.78362 | 113.42885 | 39263 ft | 459 kts | 350° |
| 2026-05-08 12:46 | 26.84758 | 113.42638 | 39258 ft | 459 kts | 350° |
| 2026-05-08 12:46 | 26.91153 | 113.42392 | 39279 ft | 459 kts | 349° |
| 2026-05-08 12:47 | 26.97558 | 113.42145 | 39264 ft | 459 kts | 349° |
| 2026-05-08 12:47 | 27.03982 | 113.41897 | 39259 ft | 459 kts | 349° |
| 2026-05-08 12:48 | 27.10440 | 113.41647 | 39259 ft | 459 kts | 349° |
| 2026-05-08 12:48 | 27.16903 | 113.41397 | 39262 ft | 458 kts | 349° |
| 2026-05-08 12:49 | 27.23333 | 113.41148 | 39261 ft | 458 kts | 349° |
| 2026-05-08 12:49 | 27.29790 | 113.40897 | 39258 ft | 458 kts | 349° |
| 2026-05-08 12:50 | 27.36225 | 113.40820 | 39258 ft | 462 kts | 352° |
| 2026-05-08 12:50 | 27.42675 | 113.40955 | 39265 ft | 461 kts | 352° |
| 2026-05-08 12:51 | 27.52387 | 113.41153 | 39263 ft | 461 kts | 352° |
| 2026-05-08 12:52 | 27.58908 | 113.41284 | 39265 ft | 461 kts | 351° |
| 2026-05-08 12:52 | 27.68630 | 113.41670 | 39261 ft | 466 kts | 355° |
| 2026-05-08 12:53 | 27.75143 | 113.42260 | 39267 ft | 465 kts | 355° |
| 2026-05-08 12:53 | 27.81639 | 113.42844 | 39259 ft | 465 kts | 355° |
| 2026-05-08 12:54 | 27.88154 | 113.43427 | 39270 ft | 465 kts | 354° |
| 2026-05-08 12:54 | 27.94618 | 113.44002 | 39265 ft | 464 kts | 354° |
| 2026-05-08 12:55 | 28.01110 | 113.44572 | 39266 ft | 464 kts | 354° |
| 2026-05-08 12:55 | 28.07603 | 113.45140 | 39269 ft | 465 kts | 354° |
| 2026-05-08 12:56 | 28.14062 | 113.45634 | 39270 ft | 464 kts | 353° |
| 2026-05-08 12:56 | 28.20564 | 113.46097 | 39268 ft | 463 kts | 353° |
| 2026-05-08 12:57 | 28.27022 | 113.46561 | 39266 ft | 463 kts | 353° |
| 2026-05-08 12:57 | 28.33536 | 113.47028 | 39269 ft | 463 kts | 353° |
| 2026-05-08 12:58 | 28.40004 | 113.47495 | 39267 ft | 463 kts | 353° |
| 2026-05-08 12:58 | 28.46485 | 113.47957 | 39270 ft | 462 kts | 353° |
| 2026-05-08 12:59 | 28.52976 | 113.48420 | 39270 ft | 463 kts | 353° |
| 2026-05-08 12:59 | 28.59438 | 113.48882 | 39271 ft | 463 kts | 353° |
| 2026-05-08 13:00 | 28.65892 | 113.49345 | 39273 ft | 463 kts | 353° |
| 2026-05-08 13:00 | 28.72371 | 113.49810 | 39275 ft | 463 kts | 352° |
| 2026-05-08 13:01 | 28.78861 | 113.50275 | 39274 ft | 463 kts | 352° |
| 2026-05-08 13:01 | 28.85313 | 113.50739 | 39273 ft | 463 kts | 352° |
| 2026-05-08 13:02 | 28.91728 | 113.51202 | 39287 ft | 463 kts | 352° |
| 2026-05-08 13:02 | 28.98189 | 113.51667 | 39274 ft | 464 kts | 352° |
| 2026-05-08 13:03 | 29.04709 | 113.52138 | 39276 ft | 464 kts | 352° |
| 2026-05-08 13:03 | 29.11245 | 113.52611 | 39278 ft | 464 kts | 352° |
| 2026-05-08 13:04 | 29.17755 | 113.53081 | 39274 ft | 464 kts | 352° |
| 2026-05-08 13:04 | 29.24213 | 113.53547 | 39276 ft | 464 kts | 352° |
| 2026-05-08 13:05 | 29.30720 | 113.54042 | 39273 ft | 465 kts | 353° |
| 2026-05-08 13:05 | 29.37212 | 113.54606 | 39265 ft | 465 kts | 353° |
| 2026-05-08 13:06 | 29.43730 | 113.55173 | 39258 ft | 465 kts | 352° |
| 2026-05-08 13:06 | 29.50223 | 113.55737 | 39254 ft | 465 kts | 352° |
| 2026-05-08 13:07 | 29.56697 | 113.56300 | 39254 ft | 465 kts | 352° |
| 2026-05-08 13:07 | 29.63217 | 113.56866 | 39253 ft | 466 kts | 352° |
| 2026-05-08 13:08 | 29.69771 | 113.57437 | 39251 ft | 466 kts | 352° |
| 2026-05-08 13:08 | 29.76281 | 113.58006 | 39252 ft | 466 kts | 352° |
| 2026-05-08 13:09 | 29.82820 | 113.58577 | 39249 ft | 465 kts | 352° |
| 2026-05-08 13:09 | 29.89262 | 113.59141 | 39242 ft | 465 kts | 352° |
| 2026-05-08 13:10 | 29.95791 | 113.60490 | 39236 ft | 486 kts | 4° |
| 2026-05-08 13:10 | 29.99011 | 113.61802 | 39238 ft | 497 kts | 10° |
| 2026-05-08 13:10 | 30.02212 | 113.63392 | 39294 ft | 499 kts | 11° |
| 2026-05-08 13:11 | 30.08656 | 113.66616 | 39256 ft | 501 kts | 12° |
| 2026-05-08 13:11 | 30.15058 | 113.69825 | 39243 ft | 501 kts | 12° |
| 2026-05-08 13:12 | 30.21494 | 113.73048 | 39234 ft | 500 kts | 12° |
| 2026-05-08 13:12 | 30.27896 | 113.76259 | 39237 ft | 501 kts | 12° |
| 2026-05-08 13:13 | 30.34273 | 113.79455 | 39238 ft | 502 kts | 12° |
| 2026-05-08 13:13 | 30.40709 | 113.82685 | 39238 ft | 503 kts | 12° |
| 2026-05-08 13:14 | 30.47100 | 113.85908 | 39237 ft | 502 kts | 12° |
| 2026-05-08 13:14 | 30.53548 | 113.89157 | 39230 ft | 502 kts | 12° |
| 2026-05-08 13:15 | 30.59952 | 113.92384 | 39236 ft | 501 kts | 12° |
| 2026-05-08 13:15 | 30.66393 | 113.95582 | 39239 ft | 500 kts | 11° |
| 2026-05-08 13:16 | 30.72800 | 113.98833 | 39242 ft | 506 kts | 14° |
| 2026-05-08 13:16 | 30.79161 | 114.02404 | 39235 ft | 505 kts | 14° |
| 2026-05-08 13:17 | 30.85551 | 114.05864 | 39240 ft | 505 kts | 13° |
| 2026-05-08 13:17 | 30.91968 | 114.09346 | 39237 ft | 504 kts | 13° |
| 2026-05-08 13:18 | 30.98316 | 114.12794 | 39243 ft | 505 kts | 13° |
| 2026-05-08 13:18 | 31.04676 | 114.16247 | 39244 ft | 505 kts | 14° |
| 2026-05-08 13:19 | 31.11068 | 114.19720 | 39248 ft | 505 kts | 13° |
| 2026-05-08 13:19 | 31.17489 | 114.23215 | 39237 ft | 505 kts | 13° |
| 2026-05-08 13:20 | 31.23868 | 114.26697 | 39241 ft | 505 kts | 14° |
| 2026-05-08 13:20 | 31.30235 | 114.30167 | 39245 ft | 503 kts | 12° |
| 2026-05-08 13:21 | 31.33463 | 114.31626 | 39240 ft | 492 kts | 6° |
| 2026-05-08 13:21 | 31.36716 | 114.32639 | 39247 ft | 481 kts | 359° |
| 2026-05-08 13:21 | 31.40002 | 114.33223 | 39246 ft | 470 kts | 353° |
| 2026-05-08 13:21 | 31.43256 | 114.33410 | 39235 ft | 463 kts | 349° |
| 2026-05-08 13:22 | 31.49686 | 114.33607 | 39233 ft | 463 kts | 349° |
| 2026-05-08 13:22 | 31.56142 | 114.33798 | 39236 ft | 463 kts | 349° |
| 2026-05-08 13:23 | 31.62628 | 114.33987 | 39240 ft | 463 kts | 349° |
| 2026-05-08 13:23 | 31.69040 | 114.34180 | 39237 ft | 463 kts | 349° |
| 2026-05-08 13:24 | 31.75488 | 114.34372 | 39236 ft | 464 kts | 349° |
| 2026-05-08 13:24 | 31.81965 | 114.34569 | 39238 ft | 463 kts | 349° |
| 2026-05-08 13:25 | 31.88416 | 114.34769 | 39240 ft | 462 kts | 350° |
| 2026-05-08 13:25 | 31.94840 | 114.34961 | 39236 ft | 462 kts | 349° |
| 2026-05-08 13:26 | 32.01309 | 114.35150 | 39234 ft | 463 kts | 349° |
| 2026-05-08 13:26 | 32.07733 | 114.35346 | 39240 ft | 463 kts | 350° |
| 2026-05-08 13:27 | 32.14214 | 114.35545 | 39237 ft | 464 kts | 350° |
| 2026-05-08 13:27 | 32.20681 | 114.35741 | 39231 ft | 464 kts | 350° |
| 2026-05-08 13:28 | 32.27170 | 114.36007 | 39226 ft | 467 kts | 352° |
| 2026-05-08 13:28 | 32.33659 | 114.36596 | 39237 ft | 467 kts | 353° |
| 2026-05-08 13:29 | 32.40129 | 114.37192 | 39229 ft | 469 kts | 353° |
| 2026-05-08 13:29 | 32.46690 | 114.37796 | 39234 ft | 469 kts | 353° |
| 2026-05-08 13:30 | 32.53175 | 114.38394 | 39231 ft | 468 kts | 353° |
| 2026-05-08 13:30 | 32.59666 | 114.39007 | 39230 ft | 470 kts | 354° |
| 2026-05-08 13:31 | 32.66195 | 114.39592 | 39236 ft | 469 kts | 353° |
| 2026-05-08 13:31 | 32.72716 | 114.40202 | 39238 ft | 469 kts | 353° |
| 2026-05-08 13:32 | 32.79243 | 114.40812 | 39231 ft | 470 kts | 354° |
| 2026-05-08 13:32 | 32.85720 | 114.41415 | 39236 ft | 470 kts | 354° |
| 2026-05-08 13:33 | 32.92267 | 114.42027 | 39236 ft | 469 kts | 354° |
| 2026-05-08 13:33 | 32.98799 | 114.42638 | 39221 ft | 469 kts | 354° |
| 2026-05-08 13:34 | 33.05331 | 114.43249 | 39224 ft | 470 kts | 354° |
| 2026-05-08 13:34 | 33.11895 | 114.43871 | 39242 ft | 470 kts | 354° |
| 2026-05-08 13:35 | 33.18449 | 114.44493 | 39225 ft | 471 kts | 354° |
| 2026-05-08 13:35 | 33.24985 | 114.45100 | 39238 ft | 470 kts | 354° |
| 2026-05-08 13:36 | 33.31565 | 114.45715 | 39229 ft | 469 kts | 354° |
| 2026-05-08 13:36 | 33.38079 | 114.46330 | 39239 ft | 468 kts | 354° |
| 2026-05-08 13:37 | 33.44569 | 114.46938 | 39228 ft | 468 kts | 355° |
| 2026-05-08 13:37 | 33.51100 | 114.47549 | 39242 ft | 467 kts | 355° |
| 2026-05-08 13:38 | 33.57621 | 114.48170 | 39220 ft | 470 kts | 354° |
| 2026-05-08 13:38 | 33.64133 | 114.48756 | 39217 ft | 468 kts | 354° |
| 2026-05-08 13:39 | 33.70679 | 114.49252 | 39234 ft | 468 kts | 354° |
| 2026-05-08 13:39 | 33.77202 | 114.49931 | 39229 ft | 469 kts | 356° |
| 2026-05-08 13:40 | 33.83716 | 114.50620 | 39226 ft | 468 kts | 355° |
| 2026-05-08 13:40 | 33.90234 | 114.51234 | 39229 ft | 466 kts | 355° |
| 2026-05-08 13:41 | 33.96733 | 114.51846 | 39224 ft | 467 kts | 355° |
| 2026-05-08 13:41 | 34.03252 | 114.52458 | 39222 ft | 467 kts | 355° |
| 2026-05-08 13:42 | 34.09776 | 114.53076 | 39225 ft | 467 kts | 355° |
| 2026-05-08 13:42 | 34.16257 | 114.53692 | 39214 ft | 467 kts | 355° |
| 2026-05-08 13:43 | 34.22753 | 114.54316 | 39216 ft | 467 kts | 355° |
| 2026-05-08 13:43 | 34.29257 | 114.54933 | 39213 ft | 466 kts | 355° |
| 2026-05-08 13:44 | 34.35759 | 114.55547 | 39206 ft | 466 kts | 355° |
| 2026-05-08 13:44 | 34.42214 | 114.56158 | 39211 ft | 466 kts | 355° |
| 2026-05-08 13:45 | 34.48698 | 114.56785 | 39179 ft | 467 kts | 355° |
| 2026-05-08 13:45 | 34.55167 | 114.57413 | 39198 ft | 466 kts | 355° |
| 2026-05-08 13:46 | 34.61665 | 114.58044 | 39205 ft | 465 kts | 355° |
| 2026-05-08 13:46 | 34.68125 | 114.58672 | 39198 ft | 464 kts | 355° |
| 2026-05-08 13:47 | 34.74595 | 114.59303 | 39187 ft | 463 kts | 355° |
| 2026-05-08 13:47 | 34.81077 | 114.59935 | 39196 ft | 464 kts | 355° |
| 2026-05-08 13:48 | 34.87564 | 114.60569 | 39205 ft | 465 kts | 355° |
| 2026-05-08 13:48 | 34.93986 | 114.61198 | 39180 ft | 464 kts | 355° |
| 2026-05-08 13:49 | 35.00412 | 114.61830 | 39203 ft | 462 kts | 355° |
| 2026-05-08 13:49 | 35.06840 | 114.62462 | 39186 ft | 461 kts | 355° |
| 2026-05-08 13:50 | 35.13263 | 114.63094 | 39178 ft | 460 kts | 355° |
| 2026-05-08 13:50 | 35.19651 | 114.63711 | 39174 ft | 461 kts | 355° |
| 2026-05-08 13:51 | 35.26055 | 114.64333 | 39181 ft | 461 kts | 355° |
| 2026-05-08 13:51 | 35.32492 | 114.64954 | 39167 ft | 461 kts | 355° |
| 2026-05-08 13:52 | 35.38897 | 114.65563 | 39194 ft | 459 kts | 355° |
| 2026-05-08 13:52 | 35.45265 | 114.66168 | 39180 ft | 459 kts | 355° |
| 2026-05-08 13:53 | 35.51671 | 114.66778 | 39170 ft | 459 kts | 355° |
| 2026-05-08 13:53 | 35.58068 | 114.67387 | 39161 ft | 459 kts | 355° |
| 2026-05-08 13:54 | 35.64438 | 114.67993 | 39161 ft | 459 kts | 355° |
| 2026-05-08 13:54 | 35.70816 | 114.68600 | 39165 ft | 459 kts | 355° |
| 2026-05-08 13:55 | 35.77164 | 114.69205 | 39160 ft | 458 kts | 355° |
| 2026-05-08 13:56 | 35.86727 | 114.70122 | 39153 ft | 456 kts | 355° |
| 2026-05-08 13:56 | 35.93056 | 114.70731 | 39159 ft | 455 kts | 355° |
| 2026-05-08 13:57 | 35.99370 | 114.71338 | 39148 ft | 456 kts | 355° |
| 2026-05-08 13:57 | 36.05724 | 114.71943 | 39137 ft | 455 kts | 354° |
| 2026-05-08 13:58 | 36.12055 | 114.72553 | 39137 ft | 455 kts | 354° |
| 2026-05-08 13:58 | 36.18366 | 114.73167 | 39127 ft | 455 kts | 354° |
| 2026-05-08 13:59 | 36.24705 | 114.73785 | 39130 ft | 455 kts | 354° |
| 2026-05-08 13:59 | 36.31013 | 114.74413 | 39124 ft | 455 kts | 355° |
| 2026-05-08 14:00 | 36.37345 | 114.75605 | 39119 ft | 469 kts | 5° |
| 2026-05-08 14:00 | 36.43529 | 114.78551 | 39109 ft | 484 kts | 15° |
| 2026-05-08 14:01 | 36.49641 | 114.82105 | 39109 ft | 485 kts | 15° |
| 2026-05-08 14:01 | 36.55743 | 114.85652 | 39110 ft | 485 kts | 15° |
| 2026-05-08 14:02 | 36.61865 | 114.89215 | 39104 ft | 484 kts | 15° |
| 2026-05-08 14:02 | 36.67981 | 114.92777 | 39093 ft | 484 kts | 15° |
| 2026-05-08 14:03 | 36.74127 | 114.96361 | 39096 ft | 486 kts | 15° |
| 2026-05-08 14:03 | 36.80252 | 114.99939 | 39078 ft | 485 kts | 15° |
| 2026-05-08 14:04 | 36.86348 | 115.03506 | 39070 ft | 484 kts | 15° |
| 2026-05-08 14:04 | 36.92419 | 115.07063 | 39087 ft | 484 kts | 15° |
| 2026-05-08 14:05 | 36.98518 | 115.10642 | 39070 ft | 484 kts | 15° |
| 2026-05-08 14:05 | 37.04646 | 115.14244 | 39078 ft | 485 kts | 15° |
| 2026-05-08 14:06 | 37.10757 | 115.17843 | 39104 ft | 486 kts | 15° |
| 2026-05-08 14:06 | 37.16940 | 115.21490 | 39079 ft | 486 kts | 16° |
| 2026-05-08 14:07 | 37.23084 | 115.25122 | 39086 ft | 486 kts | 16° |
| 2026-05-08 14:07 | 37.29218 | 115.28755 | 39074 ft | 485 kts | 16° |
| 2026-05-08 14:08 | 37.35284 | 115.32353 | 39059 ft | 484 kts | 16° |
| 2026-05-08 14:08 | 37.41387 | 115.35981 | 39076 ft | 483 kts | 16° |
| 2026-05-08 14:09 | 37.47524 | 115.39633 | 39056 ft | 483 kts | 16° |
| 2026-05-08 14:09 | 37.53587 | 115.43248 | 39059 ft | 483 kts | 16° |
| 2026-05-08 14:10 | 37.59681 | 115.46889 | 39071 ft | 482 kts | 16° |
| 2026-05-08 14:10 | 37.65721 | 115.50504 | 39063 ft | 482 kts | 17° |
| 2026-05-08 14:11 | 37.71807 | 115.54152 | 39048 ft | 482 kts | 17° |
| 2026-05-08 14:11 | 37.77992 | 115.57233 | 39067 ft | 468 kts | 6° |
| 2026-05-08 14:12 | 37.84347 | 115.58438 | 39064 ft | 450 kts | 353° |
| 2026-05-08 14:12 | 37.90587 | 115.58115 | 39050 ft | 444 kts | 348° |
| 2026-05-08 14:13 | 37.96797 | 115.57668 | 39050 ft | 440 kts | 348° |
| 2026-05-08 14:13 | 37.99850 | 115.57455 | 39018 ft | 424 kts | 348° |
| 2026-05-08 14:13 | 38.02741 | 115.57251 | 38668 ft | 416 kts | 348° |
| 2026-05-08 14:13 | 38.05641 | 115.57040 | 38091 ft | 413 kts | 348° |
| 2026-05-08 14:14 | 38.08538 | 115.56838 | 37267 ft | 415 kts | 349° |
| 2026-05-08 14:14 | 38.11443 | 115.56704 | 36393 ft | 417 kts | 349° |
| 2026-05-08 14:14 | 38.14360 | 115.56509 | 35655 ft | 419 kts | 349° |
| 2026-05-08 14:14 | 38.17290 | 115.56304 | 34944 ft | 422 kts | 349° |
| 2026-05-08 14:15 | 38.20237 | 115.56100 | 34186 ft | 425 kts | 350° |
| 2026-05-08 14:15 | 38.23215 | 115.56094 | 33298 ft | 432 kts | 356° |
| 2026-05-08 14:15 | 38.26264 | 115.56550 | 32306 ft | 441 kts | 3° |
| 2026-05-08 14:15 | 38.29293 | 115.57513 | 31413 ft | 448 kts | 11° |
| 2026-05-08 14:16 | 38.32198 | 115.58958 | 30725 ft | 449 kts | 19° |
| 2026-05-08 14:16 | 38.35002 | 115.60706 | 30111 ft | 444 kts | 21° |
| 2026-05-08 14:16 | 38.37745 | 115.62447 | 29504 ft | 438 kts | 21° |
| 2026-05-08 14:16 | 38.40453 | 115.64161 | 28950 ft | 432 kts | 21° |
| 2026-05-08 14:17 | 38.43167 | 115.65880 | 28331 ft | 427 kts | 22° |
| 2026-05-08 14:17 | 38.45840 | 115.67571 | 27676 ft | 422 kts | 22° |
| 2026-05-08 14:17 | 38.48445 | 115.69221 | 27045 ft | 417 kts | 22° |
| 2026-05-08 14:17 | 38.51041 | 115.70867 | 26240 ft | 407 kts | 22° |
| 2026-05-08 14:18 | 38.53509 | 115.72509 | 25525 ft | 395 kts | 36° |
| 2026-05-08 14:18 | 38.55707 | 115.74644 | 23610 ft | 408 kts | 52° |
| 2026-05-08 14:18 | 38.57476 | 115.77292 | 22067 ft | 387 kts | 60° |
| 2026-05-08 14:18 | 38.59264 | 115.79750 | 20223 ft | 384 kts | 46° |
| 2026-05-08 14:19 | 38.61085 | 115.82133 | 18413 ft | 369 kts | 43° |
| 2026-05-08 14:19 | 38.62994 | 115.84084 | 17800 ft | 346 kts | 25° |
| 2026-05-08 14:19 | 38.65176 | 115.85172 | 17053 ft | 331 kts | 11° |
| 2026-05-08 14:19 | 38.67402 | 115.85960 | 17237 ft | 328 kts | 14° |
| 2026-05-08 14:20 | 38.69619 | 115.86954 | 17445 ft | 340 kts | 19° |
| 2026-05-08 14:20 | 38.71827 | 115.88173 | 17403 ft | 354 kts | 24° |
| 2026-05-08 14:20 | 38.74017 | 115.89645 | 17352 ft | 355 kts | 29° |
| 2026-05-08 14:20 | 38.76134 | 115.91361 | 17291 ft | 357 kts | 34° |
| 2026-05-08 14:21 | 38.78140 | 115.93274 | 17166 ft | 356 kts | 39° |
| 2026-05-08 14:21 | 38.80053 | 115.95328 | 17118 ft | 357 kts | 40° |
| 2026-05-08 14:21 | 38.81956 | 115.97395 | 17035 ft | 357 kts | 40° |
| 2026-05-08 14:21 | 38.83836 | 115.99427 | 16959 ft | 357 kts | 40° |
| 2026-05-08 14:22 | 38.85759 | 116.01512 | 16836 ft | 356 kts | 39° |
| 2026-05-08 14:22 | 38.87637 | 116.03550 | 16789 ft | 354 kts | 38° |
| 2026-05-08 14:22 | 38.89531 | 116.05605 | 16716 ft | 352 kts | 37° |
| 2026-05-08 14:22 | 38.91384 | 116.07617 | 16638 ft | 350 kts | 35° |
| 2026-05-08 14:23 | 38.93259 | 116.09654 | 16562 ft | 349 kts | 35° |
| 2026-05-08 14:23 | 38.95108 | 116.11665 | 16499 ft | 346 kts | 35° |
| 2026-05-08 14:23 | 38.96957 | 116.13673 | 16394 ft | 345 kts | 34° |
| 2026-05-08 14:23 | 38.98808 | 116.15687 | 16330 ft | 344 kts | 34° |
| 2026-05-08 14:24 | 39.00637 | 116.17660 | 16248 ft | 342 kts | 32° |
| 2026-05-08 14:24 | 39.02686 | 116.19156 | 16186 ft | 331 kts | 14° |
| 2026-05-08 14:24 | 39.04927 | 116.19659 | 16109 ft | 322 kts | 356° |
| 2026-05-08 14:24 | 39.07166 | 116.19410 | 16023 ft | 320 kts | 350° |
| 2026-05-08 14:25 | 39.09398 | 116.19076 | 15957 ft | 319 kts | 350° |
| 2026-05-08 14:25 | 39.11625 | 116.18748 | 15886 ft | 319 kts | 350° |
| 2026-05-08 14:25 | 39.13865 | 116.18416 | 15812 ft | 320 kts | 350° |
| 2026-05-08 14:25 | 39.16072 | 116.18089 | 15743 ft | 319 kts | 350° |
| 2026-05-08 14:26 | 39.18277 | 116.17760 | 15671 ft | 319 kts | 350° |
| 2026-05-08 14:26 | 39.20389 | 116.17445 | 15609 ft | 319 kts | 350° |
| 2026-05-08 14:26 | 39.22628 | 116.17110 | 15534 ft | 319 kts | 350° |
| 2026-05-08 14:26 | 39.24835 | 116.16779 | 15468 ft | 318 kts | 350° |
| 2026-05-08 14:27 | 39.27053 | 116.16447 | 15407 ft | 318 kts | 350° |
| 2026-05-08 14:27 | 39.29279 | 116.16112 | 15317 ft | 318 kts | 350° |
| 2026-05-08 14:27 | 39.31484 | 116.15779 | 15261 ft | 318 kts | 350° |
| 2026-05-08 14:27 | 39.33693 | 116.15446 | 15178 ft | 317 kts | 350° |
| 2026-05-08 14:28 | 39.35882 | 116.15115 | 15113 ft | 317 kts | 350° |
| 2026-05-08 14:28 | 39.38096 | 116.14780 | 15049 ft | 317 kts | 350° |
| 2026-05-08 14:28 | 39.40293 | 116.14447 | 14968 ft | 317 kts | 350° |
| 2026-05-08 14:28 | 39.42483 | 116.14114 | 14904 ft | 317 kts | 350° |
| 2026-05-08 14:29 | 39.44684 | 116.13780 | 14830 ft | 317 kts | 350° |
| 2026-05-08 14:29 | 39.46895 | 116.13445 | 14777 ft | 317 kts | 350° |
| 2026-05-08 14:29 | 39.49093 | 116.13111 | 14689 ft | 317 kts | 350° |
| 2026-05-08 14:29 | 39.51281 | 116.12777 | 14612 ft | 317 kts | 350° |
| 2026-05-08 14:30 | 39.53486 | 116.12441 | 14547 ft | 317 kts | 350° |
| 2026-05-08 14:30 | 39.55669 | 116.12106 | 14472 ft | 318 kts | 350° |
| 2026-05-08 14:30 | 39.57851 | 116.11774 | 14404 ft | 317 kts | 350° |
| 2026-05-08 14:30 | 39.60057 | 116.11436 | 14354 ft | 317 kts | 350° |
| 2026-05-08 14:31 | 39.62270 | 116.11096 | 14261 ft | 318 kts | 350° |
| 2026-05-08 14:31 | 39.64451 | 116.10763 | 14204 ft | 317 kts | 350° |
| 2026-05-08 14:31 | 39.66651 | 116.10423 | 14134 ft | 317 kts | 349° |
| 2026-05-08 14:32 | 39.71026 | 116.09748 | 13986 ft | 317 kts | 349° |
| 2026-05-08 14:32 | 39.73245 | 116.09406 | 13916 ft | 316 kts | 349° |
| 2026-05-08 14:32 | 39.75423 | 116.09072 | 13854 ft | 316 kts | 349° |
| 2026-05-08 14:32 | 39.77625 | 116.08735 | 13768 ft | 314 kts | 350° |
| 2026-05-08 14:33 | 39.79785 | 116.08400 | 13720 ft | 312 kts | 349° |
| 2026-05-08 14:33 | 39.81954 | 116.08068 | 13641 ft | 314 kts | 350° |
| 2026-05-08 14:33 | 39.84170 | 116.07876 | 13568 ft | 318 kts | 355° |
| 2026-05-08 14:33 | 39.86386 | 116.07876 | 13508 ft | 318 kts | 356° |
| 2026-05-08 14:34 | 39.88611 | 116.07886 | 13433 ft | 319 kts | 356° |
| 2026-05-08 14:34 | 39.90825 | 116.07896 | 13379 ft | 319 kts | 356° |
| 2026-05-08 14:34 | 39.93057 | 116.07905 | 13301 ft | 318 kts | 356° |
| 2026-05-08 14:34 | 39.95275 | 116.07912 | 13214 ft | 314 kts | 356° |
| 2026-05-08 14:35 | 39.97429 | 116.07922 | 13169 ft | 305 kts | 356° |
| 2026-05-08 14:35 | 39.99521 | 116.07930 | 13099 ft | 295 kts | 356° |
| 2026-05-08 14:35 | 40.01568 | 116.07937 | 13030 ft | 286 kts | 355° |
| 2026-05-08 14:35 | 40.03534 | 116.07943 | 12978 ft | 276 kts | 355° |
| 2026-05-08 14:36 | 40.05437 | 116.07948 | 12912 ft | 267 kts | 355° |
| 2026-05-08 14:36 | 40.07277 | 116.07993 | 12859 ft | 264 kts | 1° |
| 2026-05-08 14:36 | 40.09067 | 116.08682 | 12798 ft | 273 kts | 22° |
| 2026-05-08 14:36 | 40.10627 | 116.10198 | 12468 ft | 283 kts | 36° |
| 2026-05-08 14:37 | 40.12087 | 116.11910 | 12101 ft | 285 kts | 36° |
| 2026-05-08 14:37 | 40.13596 | 116.13666 | 11764 ft | 285 kts | 36° |
| 2026-05-08 14:37 | 40.15069 | 116.15382 | 11469 ft | 283 kts | 36° |
| 2026-05-08 14:37 | 40.16550 | 116.17105 | 11124 ft | 283 kts | 36° |
| 2026-05-08 14:38 | 40.18009 | 116.18804 | 10846 ft | 274 kts | 36° |
| 2026-05-08 14:38 | 40.19431 | 116.20463 | 10560 ft | 269 kts | 36° |
| 2026-05-08 14:38 | 40.20838 | 116.22098 | 10278 ft | 269 kts | 36° |
| 2026-05-08 14:38 | 40.22239 | 116.23725 | 10008 ft | 270 kts | 37° |
| 2026-05-08 14:39 | 40.23660 | 116.25375 | 9711 ft | 271 kts | 37° |
| 2026-05-08 14:39 | 40.25081 | 116.27028 | 9418 ft | 270 kts | 37° |
| 2026-05-08 14:39 | 40.26495 | 116.28671 | 9131 ft | 270 kts | 38° |
| 2026-05-08 14:39 | 40.27902 | 116.30309 | 8872 ft | 270 kts | 38° |
| 2026-05-08 14:40 | 40.29317 | 116.31953 | 8553 ft | 268 kts | 38° |
| 2026-05-08 14:40 | 40.30718 | 116.33584 | 8276 ft | 273 kts | 39° |
| 2026-05-08 14:40 | 40.32154 | 116.35255 | 7986 ft | 273 kts | 39° |
| 2026-05-08 14:40 | 40.33569 | 116.36903 | 7712 ft | 271 kts | 39° |
| 2026-05-08 14:41 | 40.34981 | 116.38549 | 7419 ft | 268 kts | 40° |
| 2026-05-08 14:41 | 40.36379 | 116.40173 | 7155 ft | 264 kts | 39° |
| 2026-05-08 14:41 | 40.37818 | 116.41707 | 6859 ft | 261 kts | 34° |
| 2026-05-08 14:41 | 40.39315 | 116.43040 | 6574 ft | 257 kts | 39° |
| 2026-05-08 14:42 | 40.40366 | 116.44934 | 6297 ft | 253 kts | 71° |
| 2026-05-08 14:42 | 40.40620 | 116.47160 | 6039 ft | 245 kts | 92° |
| 2026-05-08 14:42 | 40.40625 | 116.49419 | 5762 ft | 242 kts | 92° |
| 2026-05-08 14:42 | 40.40637 | 116.51605 | 5516 ft | 238 kts | 92° |
| 2026-05-08 14:43 | 40.40490 | 116.53740 | 5257 ft | 229 kts | 112° |
| 2026-05-08 14:43 | 40.39696 | 116.55479 | 4933 ft | 219 kts | 141° |
| 2026-05-08 14:43 | 40.38405 | 116.56438 | 4638 ft | 207 kts | 171° |
| 2026-05-08 14:43 | 40.36973 | 116.56757 | 4346 ft | 204 kts | 173° |
| 2026-05-08 14:44 | 40.35585 | 116.57052 | 4070 ft | 201 kts | 175° |
| 2026-05-08 14:44 | 40.34188 | 116.57291 | 3845 ft | 196 kts | 175° |
| 2026-05-08 14:44 | 40.32851 | 116.57514 | 3808 ft | 194 kts | 176° |
| 2026-05-08 14:44 | 40.31486 | 116.57732 | 3792 ft | 195 kts | 176° |
| 2026-05-08 14:45 | 40.30122 | 116.57948 | 3792 ft | 195 kts | 176° |
| 2026-05-08 14:45 | 40.28772 | 116.58161 | 3788 ft | 194 kts | 176° |
| 2026-05-08 14:45 | 40.27426 | 116.58373 | 3776 ft | 194 kts | 176° |
| 2026-05-08 14:45 | 40.26060 | 116.58587 | 3525 ft | 199 kts | 176° |
| 2026-05-08 14:46 | 40.24681 | 116.58806 | 3278 ft | 195 kts | 176° |
| 2026-05-08 14:46 | 40.23334 | 116.59018 | 3004 ft | 193 kts | 175° |
| 2026-05-08 14:46 | 40.22044 | 116.59221 | 2737 ft | 177 kts | 175° |
| 2026-05-08 14:46 | 40.20862 | 116.59409 | 2509 ft | 159 kts | 175° |
| 2026-05-08 14:47 | 40.19825 | 116.59573 | 2308 ft | 143 kts | 175° |
| 2026-05-08 14:47 | 40.18828 | 116.59727 | 2096 ft | 141 kts | 175° |
| 2026-05-08 14:47 | 40.17891 | 116.59875 | 1925 ft | 127 kts | 176° |
| 2026-05-08 14:47 | 40.17068 | 116.60009 | 1792 ft | 114 kts | 177° |
| 2026-05-08 14:48 | 40.16269 | 116.60131 | 1597 ft | 114 kts | 176° |
| 2026-05-08 14:48 | 40.15487 | 116.60246 | 1488 ft | 114 kts | 177° |
| 2026-05-08 14:48 | 40.14688 | 116.60345 | 1266 ft | 114 kts | 182° |
| 2026-05-08 14:48 | 40.13916 | 116.60143 | 1084 ft | 112 kts | 199° |
| 2026-05-08 14:49 | 40.13174 | 116.59765 | 977 ft | 116 kts | 200° |
| 2026-05-08 14:49 | 40.12412 | 116.59355 | 789 ft | 119 kts | 200° |
| 2026-05-08 14:49 | 40.11621 | 116.59055 | 663 ft | 118 kts | 178° |
| 2026-05-08 14:49 | 40.10783 | 116.59209 | 535 ft | 122 kts | 172° |
| 2026-05-08 14:50 | 40.09938 | 116.59334 | 394 ft | 122 kts | 172° |
| 2026-05-08 14:50 | 40.09082 | 116.59463 | 215 ft | 123 kts | 173° |
| 2026-05-08 14:50 | 40.08268 | 116.59589 | 123 ft | 105 kts | 172° |
| 2026-05-08 14:50 | 40.07731 | 116.59670 | 122 ft | 48 kts | 172° |
| 2026-05-08 14:51 | 40.07484 | 116.59731 | 122 ft | 31 kts | 159° |
| 2026-05-08 14:51 | 40.07340 | 116.59843 | 122 ft | 20 kts | 143° |
| 2026-05-08 14:51 | 40.07228 | 116.59952 | 122 ft | 18 kts | 141° |
| 2026-05-08 14:51 | 40.07135 | 116.59998 | 122 ft | 14 kts | 172° |
| 2026-05-08 14:52 | 40.07023 | 116.60019 | 122 ft | 17 kts | 173° |
| 2026-05-08 14:52 | 40.06743 | 116.60060 | 122 ft | 22 kts | 173° |
| 2026-05-08 14:52 | 40.06578 | 116.60085 | 122 ft | 24 kts | 171° |
| 2026-05-08 14:53 | 40.06398 | 116.60113 | 122 ft | 26 kts | 171° |
| 2026-05-08 14:53 | 40.06207 | 116.60143 | 122 ft | 28 kts | 173° |
| 2026-05-08 14:53 | 40.06003 | 116.60176 | 122 ft | 29 kts | 172° |
| 2026-05-08 14:53 | 40.05789 | 116.60209 | 122 ft | 30 kts | 172° |
| 2026-05-08 14:54 | 40.05663 | 116.60233 | 122 ft | 9 kts | 154° |
| 2026-05-08 14:54 | 40.05640 | 116.60321 | 122 ft | 13 kts | 83° |
| 2026-05-08 14:54 | 40.05652 | 116.60456 | 122 ft | 16 kts | 83° |
| 2026-05-08 14:54 | 40.05660 | 116.60624 | 122 ft | 19 kts | 108° |
| 2026-05-08 14:55 | 40.05651 | 116.60696 | 122 ft | 6 kts | 83° |
| 2026-05-08 14:55 | 40.05663 | 116.60737 | 122 ft | 3 kts | 64° |
| 2026-05-08 14:55 | 40.05670 | 116.60757 | 122 ft | 0 kts | 66° |
| 2026-05-08 14:55 | 40.05672 | 116.60761 | 122 ft | 0 kts | 66° |
| 2026-05-08 15:03 | 40.05671 | 116.60757 | 122 ft | 3 kts | 66° |
| 2026-05-08 15:04 | 40.05660 | 116.60727 | 122 ft | 6 kts | 64° |
| 2026-05-08 15:04 | 40.05650 | 116.60690 | 122 ft | 6 kts | 73° |
| 2026-05-08 15:04 | 40.05631 | 116.60645 | 122 ft | 5 kts | 48° |
| 2026-05-08 15:04 | 40.05603 | 116.60617 | 122 ft | 3 kts | 24° |
| 2026-05-08 15:05 | 40.05564 | 116.60626 | 122 ft | 8 kts | 311° |
| 2026-05-08 15:05 | 40.05545 | 116.60683 | 122 ft | 5 kts | 289° |
| 2026-05-08 15:05 | 40.05535 | 116.60719 | 122 ft | 3 kts | 289° |
| 2026-05-08 15:05 | 40.05529 | 116.60743 | 122 ft | 0 kts | 289° |
| 2026-05-08 15:06 | 40.05529 | 116.60744 | 122 ft | 1 kts | 288° |
| 2026-05-08 15:06 | 40.05529 | 116.60743 | 122 ft | 0 kts | 291° |
| 2026-05-08 15:06 | 40.05527 | 116.60749 | 122 ft | 0 kts | 288° |
| 2026-05-08 15:07 | 40.05528 | 116.60748 | 122 ft | 0 kts | 288° |
| 2026-05-08 15:07 | 40.05529 | 116.60700 | 122 ft | 6 kts | 110° |
| 2026-05-08 15:07 | 40.05528 | 116.60745 | 122 ft | 5 kts | 110° |
| 2026-05-08 15:07 | 40.05545 | 116.60683 | 122 ft | 18 kts | 109° |
| 2026-05-08 15:08 | 40.05533 | 116.60730 | 122 ft | 13 kts | 109° |
| 2026-05-08 15:08 | 40.05528 | 116.60746 | 122 ft | 2 kts | 109° |